Time;durP1;ratioP1;P1;durP2;ratioP2;P2;SDS_P1;SDS_P2;PMS_P1;PMS_P2;Temp;Humidity;BMP_temperature;BMP_pressure;BME280_temperature;BME280_humidity;BME280_pressure;Samples;Min_cycle;Max_cycle;Signal;HPM_P1;HPM_P2
2023/12/05 00:02:00;;;;;;;30.90;23.60;;;1.00;99.90;;;;;;4975324;28;20231;-78
2023/12/05 00:04:27;;;;;;;39.67;24.35;;;0.90;99.90;;;;;;4989034;28;20219;-78
2023/12/05 00:06:54;;;;;;;32.58;22.83;;;0.90;99.90;;;;;;4974714;28;20247;-77
2023/12/05 00:09:23;;;;;;;36.35;25.13;;;0.80;99.90;;;;;;4976022;28;20226;-78
2023/12/05 00:11:50;;;;;;;36.55;24.35;;;0.90;99.90;;;;;;4974580;28;20286;-78
2023/12/05 00:14:17;;;;;;;39.80;27.13;;;0.80;99.90;;;;;;4975447;28;20228;-77
2023/12/05 00:16:44;;;;;;;34.53;22.50;;;0.70;99.90;;;;;;4975577;28;20227;-77
2023/12/05 00:19:10;;;;;;;39.85;25.27;;;0.80;99.90;;;;;;4975978;28;20246;-79
2023/12/05 00:21:38;;;;;;;40.17;28.15;;;0.80;99.90;;;;;;4975394;28;20286;-78
2023/12/05 00:24:05;;;;;;;37.25;23.75;;;0.80;99.90;;;;;;4975435;28;20240;-79
2023/12/05 00:26:34;;;;;;;32.83;23.63;;;0.80;99.90;;;;;;4972091;28;20255;-79
2023/12/05 00:29:01;;;;;;;33.67;23.02;;;0.80;99.90;;;;;;4955957;29;20236;-77
2023/12/05 00:31:28;;;;;;;33.85;25.58;;;0.80;99.90;;;;;;4956406;29;20303;-77
2023/12/05 00:33:55;;;;;;;37.45;23.67;;;0.80;99.90;;;;;;4955406;29;20601;-77
2023/12/05 00:36:22;;;;;;;36.25;24.63;;;0.70;99.90;;;;;;4956020;29;20330;-78
2023/12/05 00:38:49;;;;;;;37.88;24.13;;;0.70;99.90;;;;;;4954973;29;20228;-77
2023/12/05 00:41:16;;;;;;;36.40;23.38;;;0.70;99.90;;;;;;4956682;28;20247;-77
2023/12/05 00:43:45;;;;;;;31.23;23.25;;;0.70;99.90;;;;;;4974303;28;20235;-77
2023/12/05 00:46:12;;;;;;;34.55;23.88;;;0.70;99.90;;;;;;4975513;28;20239;-76
2023/12/05 00:48:38;;;;;;;32.78;23.80;;;0.70;99.90;;;;;;4972743;28;20232;-76
2023/12/05 00:51:06;;;;;;;33.80;24.23;;;0.80;99.90;;;;;;4955451;28;20224;-76
2023/12/05 00:53:33;;;;;;;35.75;24.27;;;0.60;99.90;;;;;;4955574;29;20235;-76
2023/12/05 00:56:00;;;;;;;35.85;24.10;;;0.70;99.90;;;;;;4955112;28;20577;-77
2023/12/05 00:58:27;;;;;;;34.03;22.33;;;0.70;99.90;;;;;;4956069;28;20600;-77
2023/12/05 01:00:56;;;;;;;31.40;21.80;;;0.70;99.90;;;;;;4954858;28;20246;-76
2023/12/05 01:03:23;;;;;;;33.03;24.52;;;0.70;99.90;;;;;;4955944;28;20231;-76
2023/12/05 01:05:50;;;;;;;41.97;25.55;;;0.80;99.90;;;;;;4955231;28;20228;-77
2023/12/05 01:08:17;;;;;;;32.30;22.38;;;0.80;99.90;;;;;;4954264;28;20234;-76
2023/12/05 01:10:44;;;;;;;36.17;22.50;;;0.80;99.90;;;;;;4955303;28;20223;-77
2023/12/05 01:13:11;;;;;;;31.48;24.55;;;0.90;99.90;;;;;;4955657;29;20235;-78
2023/12/05 01:15:38;;;;;;;33.92;24.10;;;0.90;99.90;;;;;;4954665;29;20623;-78
2023/12/05 01:18:06;;;;;;;31.90;23.50;;;0.90;99.90;;;;;;4955457;28;20220;-78
2023/12/05 01:20:33;;;;;;;38.05;22.88;;;0.90;99.90;;;;;;4956013;29;20253;-78
2023/12/05 01:23:00;;;;;;;29.73;21.45;;;1.00;99.90;;;;;;4954814;28;20270;-77
2023/12/05 01:25:27;;;;;;;37.13;24.17;;;1.00;99.90;;;;;;4956000;29;20232;-76
2023/12/05 01:27:54;;;;;;;45.55;25.02;;;1.00;99.90;;;;;;4955231;29;20235;-77
2023/12/05 01:30:21;;;;;;;34.55;23.20;;;1.00;99.90;;;;;;4955549;29;20240;-77
2023/12/05 01:32:48;;;;;;;36.78;24.80;;;0.90;99.90;;;;;;4955247;28;20232;-77
2023/12/05 01:35:16;;;;;;;31.83;21.85;;;0.90;99.90;;;;;;4955047;29;20239;-76
2023/12/05 01:37:44;;;;;;;32.08;23.33;;;1.00;99.90;;;;;;4955512;28;20259;-77
2023/12/05 01:40:11;;;;;;;36.50;23.52;;;1.00;99.90;;;;;;4954782;29;20235;-76
2023/12/05 01:42:39;;;;;;;32.15;22.42;;;0.90;99.90;;;;;;4958877;28;20251;-76
2023/12/05 01:45:08;;;;;;;31.40;22.90;;;1.00;99.90;;;;;;4974020;28;20564;-77
2023/12/05 01:47:36;;;;;;;35.10;25.08;;;1.10;99.90;;;;;;4974772;28;20227;-77
2023/12/05 01:50:03;;;;;;;38.50;26.00;;;1.10;99.90;;;;;;4974313;28;20251;-77
2023/12/05 01:52:32;;;;;;;34.45;24.13;;;1.10;99.90;;;;;;4974490;28;20235;-77
2023/12/05 01:54:59;;;;;;;35.97;24.73;;;1.10;99.90;;;;;;4973809;28;20231;-77
2023/12/05 01:57:26;;;;;;;30.80;21.98;;;1.10;99.90;;;;;;4974465;28;20242;-77
2023/12/05 01:59:54;;;;;;;30.95;24.25;;;1.10;99.90;;;;;;4974109;28;20604;-77
2023/12/05 02:02:22;;;;;;;36.00;24.35;;;1.10;99.90;;;;;;4976222;28;20242;-77
2023/12/05 02:04:49;;;;;;;35.75;24.75;;;1.10;99.90;;;;;;4977867;28;20219;-77
2023/12/05 02:07:17;;;;;;;36.42;24.77;;;1.10;99.90;;;;;;4978146;28;20235;-77
2023/12/05 02:09:46;;;;;;;33.67;25.48;;;1.10;99.90;;;;;;4978248;28;20226;-76
2023/12/05 02:12:13;;;;;;;36.22;24.05;;;1.10;99.90;;;;;;4977374;28;20553;-77
2023/12/05 02:14:40;;;;;;;35.58;24.77;;;1.10;99.90;;;;;;4978141;28;20254;-77
2023/12/05 02:17:13;;;;;;;33.88;24.88;;;1.00;99.90;;;;;;4977845;28;20697;-76
2023/12/05 02:19:56;;;;;;;34.92;23.15;;;1.00;99.90;;;;;;4978052;28;20227;-77
2023/12/05 02:22:47;;;;;;;32.90;22.90;;;0.90;99.90;;;;;;4977759;28;20227;-76
2023/12/05 02:25:26;;;;;;;38.40;26.23;;;0.90;99.90;;;;;;4976917;28;20227;-77
2023/12/05 02:27:55;;;;;;;34.25;24.58;;;0.90;99.90;;;;;;4977815;28;20293;-77
2023/12/05 02:30:25;;;;;;;33.30;22.70;;;0.80;99.90;;;;;;4977461;28;20237;-76
2023/12/05 02:32:52;;;;;;;34.80;24.23;;;0.70;99.90;;;;;;4977876;28;20239;-76
2023/12/05 02:35:20;;;;;;;36.42;25.92;;;0.80;99.90;;;;;;4977506;28;20708;-77
2023/12/05 02:37:54;;;;;;;34.13;25.50;;;0.80;99.90;;;;;;4977874;28;20231;-77
2023/12/05 02:40:27;;;;;;;31.58;24.55;;;0.70;99.90;;;;;;4977164;28;20383;-77
2023/12/05 02:42:58;;;;;;;36.83;23.67;;;0.70;99.90;;;;;;4977748;28;20243;-76
2023/12/05 02:45:29;;;;;;;31.20;23.70;;;0.80;99.90;;;;;;4977132;28;20565;-77
2023/12/05 02:47:59;;;;;;;38.28;23.02;;;0.70;99.90;;;;;;4977618;28;20235;-77
2023/12/05 02:50:26;;;;;;;32.70;23.90;;;0.70;99.90;;;;;;4976640;28;20232;-77
2023/12/05 02:52:58;;;;;;;35.50;22.92;;;0.80;99.90;;;;;;4977854;28;20617;-76
2023/12/05 02:55:25;;;;;;;36.92;26.88;;;0.70;99.90;;;;;;4976804;28;20231;-77
2023/12/05 02:57:52;;;;;;;35.83;23.80;;;0.70;99.90;;;;;;4977351;28;20227;-77
2023/12/05 03:00:20;;;;;;;37.03;21.90;;;0.80;99.90;;;;;;4976798;28;20277;-77
2023/12/05 03:02:47;;;;;;;34.75;24.08;;;0.80;99.90;;;;;;4977419;28;20231;-77
2023/12/05 03:05:14;;;;;;;33.33;24.80;;;0.90;99.90;;;;;;4976378;28;20223;-76
2023/12/05 03:07:42;;;;;;;32.25;22.20;;;1.00;99.90;;;;;;4977377;28;20231;-79
2023/12/05 03:10:09;;;;;;;31.30;23.40;;;1.00;99.90;;;;;;4976479;28;20227;-78
2023/12/05 03:12:36;;;;;;;30.40;22.27;;;1.00;99.90;;;;;;4975828;28;20634;-79
2023/12/05 03:15:06;;;;;;;32.78;23.70;;;1.00;99.90;;;;;;4977187;28;20227;-78
2023/12/05 03:17:34;;;;;;;34.60;23.05;;;1.10;99.90;;;;;;4976889;28;20583;-77
2023/12/05 03:20:01;;;;;;;32.60;24.17;;;1.10;99.90;;;;;;4976859;28;20227;-77
2023/12/05 03:22:31;;;;;;;33.25;22.02;;;1.10;99.90;;;;;;4976241;28;20234;-77
2023/12/05 03:24:57;;;;;;;35.50;24.33;;;1.10;99.90;;;;;;4977159;28;20227;-78
2023/12/05 03:27:25;;;;;;;36.28;23.60;;;1.20;99.90;;;;;;4976522;28;20239;-76
2023/12/05 03:29:52;;;;;;;40.20;25.65;;;1.20;99.90;;;;;;4976863;28;20219;-77
2023/12/05 03:32:19;;;;;;;35.67;24.58;;;1.20;99.90;;;;;;4976037;28;20227;-77
2023/12/05 03:34:49;;;;;;;33.95;23.40;;;1.20;99.90;;;;;;4976997;28;20231;-77
2023/12/05 03:37:16;;;;;;;37.72;24.75;;;1.20;99.90;;;;;;4976010;28;20231;-79
2023/12/05 03:39:43;;;;;;;31.63;23.95;;;1.20;99.90;;;;;;4977096;28;20320;-79
2023/12/05 03:42:10;;;;;;;36.15;26.02;;;1.10;99.90;;;;;;4976236;28;20239;-77
2023/12/05 03:44:37;;;;;;;32.05;23.35;;;1.10;99.90;;;;;;4976712;28;20227;-79
2023/12/05 03:47:04;;;;;;;31.30;24.95;;;1.10;99.90;;;;;;4975768;28;20224;-77
2023/12/05 03:49:32;;;;;;;33.20;23.52;;;1.20;99.90;;;;;;4975885;28;20242;-77
2023/12/05 03:52:01;;;;;;;34.85;24.83;;;1.20;99.90;;;;;;4976457;28;20235;-78
2023/12/05 03:54:28;;;;;;;36.20;23.65;;;1.30;99.90;;;;;;4975378;28;20310;-79
2023/12/05 03:56:55;;;;;;;32.90;24.15;;;1.20;99.90;;;;;;4975703;28;20237;-76
2023/12/05 03:59:22;;;;;;;35.53;25.42;;;1.20;99.90;;;;;;4975828;28;20227;-76
2023/12/05 04:01:49;;;;;;;31.88;24.75;;;1.10;99.90;;;;;;4976238;28;20231;-80
2023/12/05 04:04:17;;;;;;;34.75;22.77;;;1.10;99.90;;;;;;4974657;28;20234;-77
2023/12/05 04:06:44;;;;;;;36.03;22.88;;;1.10;99.90;;;;;;4976094;28;20234;-79
2023/12/05 04:09:12;;;;;;;35.10;24.35;;;1.00;99.90;;;;;;4976309;28;20528;-78
2023/12/05 04:11:40;;;;;;;34.80;22.92;;;1.00;99.90;;;;;;4975211;28;20293;-76
2023/12/05 04:14:10;;;;;;;38.13;25.35;;;1.00;99.90;;;;;;4976275;28;20232;-78
2023/12/05 04:16:37;;;;;;;33.45;24.35;;;1.00;99.90;;;;;;4964347;28;20234;-79
2023/12/05 04:19:04;;;;;;;41.50;25.10;;;1.00;99.90;;;;;;4974462;28;20223;-76
2023/12/05 04:21:31;;;;;;;32.72;24.25;;;1.00;99.90;;;;;;4974347;28;20227;-78
2023/12/05 04:23:58;;;;;;;34.47;22.88;;;1.00;99.90;;;;;;4975418;28;20674;-78
2023/12/05 04:26:26;;;;;;;32.15;23.20;;;1.00;99.90;;;;;;4975253;28;20224;-78
2023/12/05 04:28:53;;;;;;;33.05;23.88;;;1.00;99.90;;;;;;4975883;28;20223;-78
2023/12/05 04:31:20;;;;;;;33.97;23.55;;;0.90;99.90;;;;;;4970516;28;20219;-77
2023/12/05 04:33:47;;;;;;;39.55;24.67;;;0.90;99.90;;;;;;4975506;28;20224;-76
2023/12/05 04:36:15;;;;;;;38.65;26.80;;;1.00;99.90;;;;;;4974737;28;20234;-76
2023/12/05 04:38:43;;;;;;;34.85;24.13;;;1.00;99.90;;;;;;4974955;28;20231;-78
2023/12/05 04:41:10;;;;;;;36.10;24.40;;;1.10;99.90;;;;;;4975578;28;20223;-78
2023/12/05 04:43:38;;;;;;;36.53;23.60;;;1.00;99.90;;;;;;4965368;28;20236;-78
2023/12/05 04:46:05;;;;;;;39.95;24.95;;;1.10;99.90;;;;;;4974302;28;20242;-76
2023/12/05 04:48:33;;;;;;;34.10;23.70;;;1.00;99.90;;;;;;4974336;28;20227;-76
2023/12/05 04:51:00;;;;;;;32.47;24.27;;;1.00;99.90;;;;;;4975855;28;20594;-78
2023/12/05 04:53:27;;;;;;;37.53;24.85;;;1.10;99.90;;;;;;4974821;28;20245;-79
2023/12/05 04:55:54;;;;;;;33.10;25.65;;;1.10;99.90;;;;;;4974735;28;20223;-78
2023/12/05 04:58:21;;;;;;;35.95;24.67;;;1.10;99.90;;;;;;4975544;28;20226;-78
2023/12/05 05:00:49;;;;;;;31.77;23.58;;;1.20;99.90;;;;;;4974655;28;20231;-78
2023/12/05 05:03:18;;;;;;;34.85;22.58;;;1.20;99.90;;;;;;4974998;28;20308;-76
2023/12/05 05:05:45;;;;;;;30.67;22.23;;;1.20;99.90;;;;;;4974330;28;20228;-75
2023/12/05 05:08:12;;;;;;;29.40;22.20;;;1.30;99.90;;;;;;4975148;28;20227;-75
2023/12/05 05:10:40;;;;;;;31.85;23.80;;;1.30;99.90;;;;;;4974687;28;20266;-77
2023/12/05 05:13:07;;;;;;;32.10;22.33;;;1.30;99.90;;;;;;4975001;28;20231;-77
2023/12/05 05:15:33;;;;;;;35.58;24.48;;;1.20;99.90;;;;;;4974472;28;20230;-77
2023/12/05 05:18:03;;;;;;;34.85;27.00;;;1.20;99.90;;;;;;4957971;28;20704;-75
2023/12/05 05:20:30;;;;;;;27.27;23.00;;;1.10;99.90;;;;;;4974414;28;20238;-76
2023/12/05 05:22:57;;;;;;;36.40;24.38;;;1.20;99.90;;;;;;4975170;28;20228;-76
2023/12/05 05:25:25;;;;;;;33.40;23.52;;;1.20;99.90;;;;;;4975166;28;20242;-76
2023/12/05 05:27:52;;;;;;;31.30;24.00;;;1.30;99.90;;;;;;4974750;28;20247;-75
2023/12/05 05:30:19;;;;;;;32.38;22.80;;;1.30;99.90;;;;;;4974434;28;20250;-75
2023/12/05 05:32:46;;;;;;;39.28;24.80;;;1.40;99.90;;;;;;4974187;28;20238;-75
2023/12/05 05:35:15;;;;;;;33.92;22.92;;;1.30;99.90;;;;;;4974819;28;20701;-75
2023/12/05 05:37:44;;;;;;;32.40;23.90;;;1.40;99.90;;;;;;4973627;28;20227;-76
2023/12/05 05:40:12;;;;;;;36.25;23.25;;;1.30;99.90;;;;;;4974794;28;20307;-77
2023/12/05 05:42:39;;;;;;;34.83;24.85;;;1.40;99.90;;;;;;4973475;28;20239;-77
2023/12/05 05:45:06;;;;;;;35.47;24.42;;;1.30;99.90;;;;;;4974903;28;20227;-78
2023/12/05 05:47:33;;;;;;;31.55;23.13;;;1.40;99.90;;;;;;4974564;28;20227;-77
2023/12/05 05:50:01;;;;;;;36.60;24.00;;;1.30;99.90;;;;;;4973866;28;20231;-78
2023/12/05 05:52:29;;;;;;;31.30;23.42;;;1.30;99.90;;;;;;4974772;28;20239;-77
2023/12/05 05:54:56;;;;;;;33.30;24.58;;;1.40;99.90;;;;;;4974121;28;20564;-78
2023/12/05 05:57:23;;;;;;;37.97;27.67;;;1.40;99.90;;;;;;4974798;28;20239;-79
2023/12/05 05:59:50;;;;;;;32.67;26.05;;;1.40;99.90;;;;;;4973610;28;20234;-78
2023/12/05 06:02:17;;;;;;;32.90;23.73;;;1.50;99.90;;;;;;4974536;28;20558;-77
2023/12/05 06:04:44;;;;;;;30.60;23.55;;;1.50;99.90;;;;;;4974172;28;20227;-78
2023/12/05 06:07:11;;;;;;;36.20;25.80;;;1.40;99.90;;;;;;4974402;28;20233;-78
2023/12/05 06:09:39;;;;;;;42.22;26.23;;;1.50;99.90;;;;;;4974112;28;20235;-78
2023/12/05 06:12:08;;;;;;;36.88;26.27;;;1.50;99.90;;;;;;4974413;28;20570;-78
2023/12/05 06:14:38;;;;;;;31.65;24.77;;;1.50;99.90;;;;;;4974129;28;20234;-78
2023/12/05 06:17:06;;;;;;;33.67;25.15;;;1.50;99.90;;;;;;4974505;28;20230;-78
2023/12/05 06:19:33;;;;;;;34.42;24.20;;;1.50;99.90;;;;;;4974601;28;20685;-76
2023/12/05 06:22:03;;;;;;;33.15;24.50;;;1.50;99.90;;;;;;4974227;28;20301;-76
2023/12/05 06:24:30;;;;;;;32.90;23.05;;;1.50;99.90;;;;;;4974433;28;20227;-76
2023/12/05 06:26:59;;;;;;;32.60;24.88;;;1.50;99.90;;;;;;4973818;28;20227;-76
2023/12/05 06:29:26;;;;;;;32.53;24.42;;;1.60;99.90;;;;;;4974299;28;20314;-78
2023/12/05 06:31:53;;;;;;;32.47;22.73;;;1.50;99.90;;;;;;4973442;28;20236;-76
2023/12/05 06:34:22;;;;;;;33.63;25.38;;;1.50;99.90;;;;;;4974438;28;20231;-78
2023/12/05 06:36:49;;;;;;;31.88;24.75;;;1.50;99.90;;;;;;4972870;28;20243;-78
2023/12/05 06:39:16;;;;;;;35.70;24.27;;;1.50;99.90;;;;;;4973666;28;20223;-78
2023/12/05 06:41:43;;;;;;;33.45;24.70;;;1.50;99.90;;;;;;4972831;28;20608;-76
2023/12/05 06:44:11;;;;;;;32.00;24.77;;;1.60;99.90;;;;;;4970888;28;20242;-75
2023/12/05 06:46:39;;;;;;;32.83;22.67;;;1.60;99.90;;;;;;4973798;28;20239;-77
2023/12/05 06:49:06;;;;;;;29.73;20.90;;;1.70;99.90;;;;;;4976268;28;20294;-77
2023/12/05 06:51:33;;;;;;;34.30;24.65;;;1.70;99.90;;;;;;4977548;28;20235;-76
2023/12/05 06:54:00;;;;;;;33.50;23.70;;;1.70;99.90;;;;;;4976867;28;20266;-76
2023/12/05 06:56:27;;;;;;;35.67;21.83;;;1.70;99.90;;;;;;4977046;28;20235;-76
2023/12/05 06:58:54;;;;;;;31.85;23.75;;;1.70;99.90;;;;;;4977004;28;20233;-76
2023/12/05 07:01:22;;;;;;;33.90;24.25;;;1.70;99.90;;;;;;4977402;28;20227;-76
2023/12/05 07:03:49;;;;;;;30.13;23.10;;;1.60;99.90;;;;;;4976829;28;20231;-76
2023/12/05 07:06:17;;;;;;;37.75;23.20;;;1.60;99.90;;;;;;4977311;28;20238;-76
2023/12/05 07:08:45;;;;;;;35.63;23.85;;;1.60;99.90;;;;;;4977598;28;20294;-76
2023/12/05 07:11:15;;;;;;;30.45;22.70;;;1.60;99.90;;;;;;4975585;28;20223;-77
2023/12/05 07:13:42;;;;;;;31.40;25.75;;;1.60;99.90;;;;;;4976973;28;20267;-76
2023/12/05 07:16:11;;;;;;;31.42;22.85;;;1.60;99.90;;;;;;4976423;28;20219;-76
2023/12/05 07:18:40;;;;;;;29.55;23.35;;;1.60;99.90;;;;;;4977159;28;20234;-78
2023/12/05 07:21:14;;;;;;;36.85;23.83;;;1.60;99.90;;;;;;4976504;28;20315;-77
2023/12/05 07:23:44;;;;;;;33.00;24.05;;;1.70;99.90;;;;;;4977252;28;20227;-77
2023/12/05 07:26:14;;;;;;;32.47;24.83;;;1.60;99.90;;;;;;4978347;28;20255;-77
2023/12/05 07:28:41;;;;;;;34.63;24.58;;;1.60;99.90;;;;;;4981964;28;20231;-77
2023/12/05 07:31:09;;;;;;;35.60;24.10;;;1.60;99.90;;;;;;4975621;28;20589;-77
2023/12/05 07:33:35;;;;;;;36.25;24.92;;;1.60;99.90;;;;;;4976739;28;20235;-78
2023/12/05 07:36:07;;;;;;;33.28;25.15;;;1.70;99.90;;;;;;4976148;28;20238;-77
2023/12/05 07:38:33;;;;;;;36.42;24.75;;;1.70;99.90;;;;;;4976793;28;20231;-77
2023/12/05 07:41:00;;;;;;;35.70;25.55;;;1.80;99.90;;;;;;4976250;28;20254;-77
2023/12/05 07:43:29;;;;;;;36.92;24.90;;;1.70;99.90;;;;;;4976516;28;20238;-77
2023/12/05 07:45:59;;;;;;;36.53;23.75;;;1.70;99.90;;;;;;4976068;28;20224;-78
2023/12/05 07:48:25;;;;;;;33.28;24.25;;;1.70;99.90;;;;;;4976300;28;20235;-77
2023/12/05 07:50:56;;;;;;;35.00;24.05;;;1.70;99.90;;;;;;4976319;28;20732;-77
2023/12/05 07:53:24;;;;;;;35.72;25.77;;;1.70;99.90;;;;;;4967932;28;20741;-77
2023/12/05 07:55:51;;;;;;;37.78;27.05;;;1.70;99.90;;;;;;4976854;28;20238;-76
2023/12/05 07:58:18;;;;;;;36.05;25.52;;;1.50;99.90;;;;;;4975037;28;20231;-76
2023/12/05 08:00:46;;;;;;;35.03;26.27;;;1.50;99.90;;;;;;4975262;28;20266;-76
2023/12/05 08:03:14;;;;;;;36.15;25.00;;;1.60;99.90;;;;;;4975996;28;20689;-78
2023/12/05 08:05:41;;;;;;;36.70;26.77;;;1.60;99.90;;;;;;4976383;28;20311;-78
2023/12/05 08:08:08;;;;;;;30.35;24.02;;;1.70;99.90;;;;;;4975582;28;20322;-76
2023/12/05 08:10:36;;;;;;;39.00;26.52;;;1.70;99.90;;;;;;4976411;28;20239;-76
2023/12/05 08:13:03;;;;;;;36.20;25.60;;;1.80;99.90;;;;;;4975564;28;20231;-76
2023/12/05 08:15:31;;;;;;;39.00;27.92;;;1.80;99.90;;;;;;4975401;28;20219;-76
2023/12/05 08:17:57;;;;;;;34.88;24.20;;;1.80;99.90;;;;;;4975633;28;20227;-76
2023/12/05 08:20:25;;;;;;;35.53;26.85;;;1.80;99.90;;;;;;4976112;28;20238;-76
2023/12/05 08:22:52;;;;;;;34.47;25.65;;;1.80;99.90;;;;;;4975500;28;20251;-76
2023/12/05 08:25:20;;;;;;;34.53;24.83;;;1.80;99.90;;;;;;4975185;28;20702;-76
2023/12/05 08:27:49;;;;;;;35.08;25.65;;;1.80;99.90;;;;;;4975906;28;20290;-76
2023/12/05 08:30:16;;;;;;;31.27;25.35;;;1.80;99.90;;;;;;4975005;28;20223;-76
2023/12/05 08:32:43;;;;;;;36.08;25.05;;;1.80;99.90;;;;;;4975675;28;20227;-76
2023/12/05 08:35:11;;;;;;;31.60;24.40;;;1.60;99.90;;;;;;4974222;28;20243;-78
2023/12/05 08:37:38;;;;;;;34.53;25.88;;;1.70;99.90;;;;;;4975444;28;20243;-76
2023/12/05 08:40:12;;;;;;;34.25;24.48;;;1.80;99.90;;;;;;4975305;28;20752;-76
2023/12/05 08:42:42;;;;;;;32.80;25.40;;;1.80;99.90;;;;;;4975515;28;20239;-76
2023/12/05 08:45:11;;;;;;;37.13;24.90;;;1.80;99.90;;;;;;4975163;28;20235;-76
2023/12/05 08:47:37;;;;;;;35.88;25.50;;;1.90;99.90;;;;;;4975450;28;20230;-76
2023/12/05 08:50:05;;;;;;;36.37;25.37;;;1.80;99.90;;;;;;4974963;28;20673;-76
2023/12/05 08:52:32;;;;;;;36.75;24.60;;;1.90;99.90;;;;;;4975656;28;20953;-76
2023/12/05 08:55:00;;;;;;;32.63;25.90;;;2.00;99.90;;;;;;4974745;28;20224;-77
2023/12/05 08:57:27;;;;;;;36.15;26.30;;;1.90;99.90;;;;;;4975095;28;20243;-78
2023/12/05 08:59:54;;;;;;;33.50;25.10;;;1.80;99.90;;;;;;4975275;28;20669;-76
2023/12/05 09:02:24;;;;;;;33.97;24.02;;;1.80;99.90;;;;;;4974687;28;20685;-77
2023/12/05 09:04:56;;;;;;;33.15;25.13;;;1.70;99.90;;;;;;4974518;28;20227;-78
2023/12/05 09:07:23;;;;;;;36.35;24.80;;;1.70;99.90;;;;;;4974649;28;20262;-76
2023/12/05 09:09:51;;;;;;;30.70;24.15;;;1.70;99.90;;;;;;4975197;28;20227;-76
2023/12/05 09:12:18;;;;;;;36.67;26.00;;;1.80;99.90;;;;;;4974352;28;20232;-76
2023/12/05 09:14:45;;;;;;;32.80;25.08;;;1.80;99.90;;;;;;4974742;28;20227;-76
2023/12/05 09:17:13;;;;;;;33.72;24.60;;;1.80;99.90;;;;;;4973864;28;20227;-76
2023/12/05 09:19:41;;;;;;;32.25;23.27;;;1.80;99.90;;;;;;4975395;28;20231;-76
2023/12/05 09:22:08;;;;;;;35.83;23.00;;;1.90;99.90;;;;;;4974298;28;20231;-76
2023/12/05 09:24:35;;;;;;;35.55;25.98;;;2.00;99.90;;;;;;4974974;28;20234;-76
2023/12/05 09:27:02;;;;;;;33.13;25.17;;;1.90;99.90;;;;;;4974422;28;20228;-76
2023/12/05 09:29:32;;;;;;;31.25;25.23;;;1.90;99.90;;;;;;4965048;28;20231;-78
2023/12/05 09:32:00;;;;;;;32.33;23.33;;;1.90;99.90;;;;;;4974333;28;20216;-78
2023/12/05 09:34:27;;;;;;;31.25;22.55;;;2.00;99.90;;;;;;4973887;28;20230;-78
2023/12/05 09:36:55;;;;;;;39.50;22.60;;;2.10;99.90;;;;;;4966083;28;20673;-77
2023/12/05 09:39:23;;;;;;;35.15;25.30;;;2.00;99.90;;;;;;4973674;28;20230;-78
2023/12/05 09:41:53;;;;;;;33.63;25.92;;;2.10;99.90;;;;;;4974642;28;20704;-78
2023/12/05 09:44:22;;;;;;;31.50;24.95;;;2.10;99.90;;;;;;4974301;28;20242;-78
2023/12/05 09:46:53;;;;;;;32.42;25.25;;;2.10;99.90;;;;;;4975006;28;20227;-79
2023/12/05 09:49:24;;;;;;;32.80;23.80;;;2.20;99.90;;;;;;4973844;28;20227;-78
2023/12/05 09:51:52;;;;;;;30.20;23.75;;;2.30;99.90;;;;;;4975022;28;20611;-77
2023/12/05 09:54:21;;;;;;;27.27;22.77;;;2.40;99.90;;;;;;4974541;28;20235;-78
2023/12/05 09:56:52;;;;;;;32.25;24.10;;;2.40;99.90;;;;;;4974997;28;20223;-78
2023/12/05 09:59:21;;;;;;;33.20;24.23;;;2.50;99.90;;;;;;4973864;28;20235;-78
2023/12/05 10:01:48;;;;;;;29.88;24.40;;;2.50;99.90;;;;;;4974942;28;20231;-79
2023/12/05 10:04:19;;;;;;;34.55;23.42;;;2.40;99.90;;;;;;4974317;28;20750;-79
2023/12/05 10:06:48;;;;;;;30.90;22.25;;;2.40;99.90;;;;;;4974678;28;20219;-78
2023/12/05 10:09:17;;;;;;;33.22;23.55;;;2.60;99.90;;;;;;4974135;28;20546;-78
2023/12/05 10:11:46;;;;;;;34.72;21.80;;;2.50;99.90;;;;;;4974633;28;20227;-78
2023/12/05 10:14:13;;;;;;;34.05;24.45;;;2.50;99.90;;;;;;4973929;28;20219;-78
2023/12/05 10:16:40;;;;;;;32.83;21.85;;;2.60;99.90;;;;;;4974250;28;20220;-78
2023/12/05 10:19:10;;;;;;;27.38;21.65;;;2.60;99.90;;;;;;4974183;28;20235;-77
2023/12/05 10:21:37;;;;;;;27.48;22.63;;;2.60;99.90;;;;;;4974261;28;20552;-77
2023/12/05 10:24:05;;;;;;;29.35;23.05;;;2.60;99.90;;;;;;4977422;28;20219;-79
2023/12/05 10:26:32;;;;;;;29.73;22.73;;;2.70;99.90;;;;;;4977759;28;20593;-77
2023/12/05 10:29:01;;;;;;;32.65;24.58;;;2.60;99.90;;;;;;4978430;28;20231;-77
2023/12/05 10:31:28;;;;;;;31.60;22.20;;;2.60;99.90;;;;;;4977198;28;20278;-77
2023/12/05 10:34:05;;;;;;;27.50;23.45;;;2.50;99.90;;;;;;4974940;28;20231;-77
2023/12/05 10:36:32;;;;;;;31.30;23.77;;;2.50;99.90;;;;;;4977589;28;20223;-77
2023/12/05 10:39:00;;;;;;;30.23;23.27;;;2.40;99.90;;;;;;4977101;28;20231;-76
2023/12/05 10:41:30;;;;;;;30.83;22.42;;;2.30;99.90;;;;;;4975963;28;20235;-76
2023/12/05 10:43:57;;;;;;;33.20;23.25;;;2.40;99.90;;;;;;4978173;28;20227;-77
2023/12/05 10:46:27;;;;;;;30.35;24.10;;;2.30;99.90;;;;;;4977049;28;20254;-79
2023/12/05 10:48:54;;;;;;;30.17;23.10;;;2.30;99.90;;;;;;4975857;28;20297;-80
2023/12/05 10:51:25;;;;;;;37.60;24.05;;;2.30;99.90;;;;;;4976737;28;20219;-80
2023/12/05 10:53:53;;;;;;;26.52;20.77;;;2.40;99.90;;;;;;4977812;28;20227;-81
2023/12/05 10:56:20;;;;;;;31.75;22.67;;;2.40;99.90;;;;;;4976280;28;20240;-81
2023/12/05 10:58:48;;;;;;;26.77;20.67;;;2.40;99.90;;;;;;4977700;28;20586;-80
2023/12/05 11:01:17;;;;;;;27.17;22.05;;;2.40;99.90;;;;;;4967137;28;20223;-81
2023/12/05 11:03:46;;;;;;;30.40;22.05;;;2.50;99.90;;;;;;4974605;28;20227;-81
2023/12/05 11:06:13;;;;;;;29.02;21.50;;;2.40;99.90;;;;;;4977310;28;20291;-82
2023/12/05 11:08:40;;;;;;;33.97;25.08;;;2.50;99.90;;;;;;4976883;28;20527;-81
2023/12/05 11:11:11;;;;;;;32.00;23.25;;;2.40;99.90;;;;;;4977819;28;20705;-81
2023/12/05 11:13:40;;;;;;;31.52;22.92;;;2.50;99.90;;;;;;4977668;28;20694;-80
2023/12/05 11:16:14;;;;;;;29.13;22.30;;;2.50;99.90;;;;;;4977247;28;20692;-81
2023/12/05 11:18:43;;;;;;;29.63;22.23;;;2.60;99.90;;;;;;4977491;28;20253;-80
2023/12/05 11:21:33;;;;;;;27.42;22.50;;;2.50;99.90;;;;;;4977933;28;20227;-81
2023/12/05 11:24:21;;;;;;;32.08;22.13;;;2.60;99.90;;;;;;4971560;28;20234;-79
2023/12/05 11:27:16;;;;;;;29.83;22.63;;;2.60;99.90;;;;;;4978899;28;20219;-81
2023/12/05 11:30:04;;;;;;;30.10;23.38;;;2.60;99.90;;;;;;4977628;28;20231;-81
2023/12/05 11:32:39;;;;;;;28.63;21.38;;;2.60;99.90;;;;;;4977668;28;20311;-81
2023/12/05 11:35:15;;;;;;;27.65;21.42;;;2.60;99.90;;;;;;4977976;28;20550;-80
2023/12/05 11:37:56;;;;;;;29.10;21.60;;;2.70;99.90;;;;;;4976257;28;20227;-81
2023/12/05 11:40:23;;;;;;;33.63;23.42;;;2.70;99.90;;;;;;4983210;28;20227;-81
2023/12/05 11:43:10;;;;;;;29.75;21.80;;;2.70;99.90;;;;;;4976771;28;20669;-80
2023/12/05 11:45:38;;;;;;;25.80;20.42;;;2.90;99.90;;;;;;4976919;28;20301;-79
2023/12/05 11:48:06;;;;;;;26.05;20.92;;;2.90;99.90;;;;;;4977238;28;20254;-79
2023/12/05 11:50:43;;;;;;;27.73;21.48;;;2.90;99.90;;;;;;4977796;28;20252;-77
2023/12/05 11:53:14;;;;;;;31.98;22.60;;;2.80;99.90;;;;;;4977273;28;20227;-79
2023/12/05 11:55:43;;;;;;;29.33;21.65;;;2.90;99.90;;;;;;4976480;28;20616;-78
2023/12/05 11:58:26;;;;;;;26.60;22.25;;;3.00;99.90;;;;;;4976502;28;20237;-79
2023/12/05 12:01:01;;;;;;;30.35;23.55;;;3.00;99.90;;;;;;4975077;28;21057;-80
2023/12/05 12:03:28;;;;;;;31.40;22.73;;;3.00;99.90;;;;;;4976582;28;20231;-81
2023/12/05 12:06:03;;;;;;;26.40;21.38;;;3.00;99.90;;;;;;4976281;28;20363;-82
2023/12/05 12:08:31;;;;;;;27.90;21.73;;;3.00;99.90;;;;;;4976546;28;20219;-81
2023/12/05 12:11:00;;;;;;;28.15;21.08;;;2.90;99.90;;;;;;4975896;28;20277;-81
2023/12/05 12:13:30;;;;;;;27.45;21.92;;;3.00;99.90;;;;;;4976515;28;20231;-80
2023/12/05 12:15:58;;;;;;;24.65;19.50;;;2.90;99.90;;;;;;4975484;28;20223;-79
2023/12/05 12:18:26;;;;;;;28.40;20.60;;;2.90;99.90;;;;;;4976264;28;20243;-81
2023/12/05 12:20:55;;;;;;;28.13;22.25;;;3.00;99.90;;;;;;4976131;28;20554;-81
2023/12/05 12:23:22;;;;;;;25.83;20.13;;;3.10;99.90;;;;;;4976195;28;20560;-81
2023/12/05 12:25:53;;;;;;;26.27;21.90;;;3.10;99.90;;;;;;4975685;28;20236;-81
2023/12/05 12:28:28;;;;;;;25.88;19.98;;;3.10;99.90;;;;;;4975867;28;20215;-81
2023/12/05 12:30:56;;;;;;;29.20;21.65;;;3.10;99.90;;;;;;4975790;28;20241;-80
2023/12/05 12:33:28;;;;;;;26.55;20.23;;;3.10;99.90;;;;;;4976126;28;20250;-78
2023/12/05 12:35:55;;;;;;;27.15;20.85;;;3.10;99.90;;;;;;4975501;28;20246;-78
2023/12/05 12:38:24;;;;;;;29.42;22.23;;;3.20;99.90;;;;;;4975961;28;20669;-78
2023/12/05 12:40:53;;;;;;;27.23;20.13;;;3.20;99.90;;;;;;4975571;28;20234;-78
2023/12/05 12:43:20;;;;;;;30.90;22.58;;;3.20;99.90;;;;;;4975429;28;20235;-78